createdAt,value
2023-01-10T00:02:14.352Z,6.60
2023-01-10T00:04:42.092Z,6.60
2023-01-10T00:07:09.770Z,6.60
2023-01-10T00:09:37.406Z,6.60
2023-01-10T00:12:22.645Z,6.50
2023-01-10T00:14:52.609Z,6.40
2023-01-10T00:17:21.047Z,6.60
2023-01-10T00:19:48.923Z,6.70
2023-01-10T00:22:24.922Z,6.70
2023-01-10T00:24:52.750Z,6.70
2023-01-10T00:27:23.316Z,6.70
2023-01-10T00:29:53.355Z,6.90
2023-01-10T00:32:21.443Z,6.80
2023-01-10T00:34:49.181Z,6.80
2023-01-10T00:37:17.331Z,6.60
2023-01-10T00:39:44.963Z,6.80
2023-01-10T00:42:30.371Z,6.90
2023-01-10T00:44:59.417Z,7.00
2023-01-10T00:47:27.045Z,6.90
2023-01-10T00:49:54.697Z,7.00
2023-01-10T00:52:22.458Z,6.90
2023-01-10T00:54:50.100Z,7.00
2023-01-10T00:57:17.756Z,6.90
2023-01-10T00:59:45.536Z,6.90
2023-01-10T01:02:14.731Z,7.00
2023-01-10T01:04:42.444Z,7.10
2023-01-10T01:07:10.097Z,7.20
2023-01-10T01:09:58.254Z,7.30
2023-01-10T01:12:25.916Z,7.30
2023-01-10T01:14:53.655Z,7.30
2023-01-10T01:17:22.636Z,7.20
2023-01-10T01:19:50.275Z,7.10
2023-01-10T01:22:17.898Z,7.20
2023-01-10T01:24:45.586Z,7.10
2023-01-10T01:27:13.205Z,7.00
2023-01-10T01:29:43.418Z,7.00
2023-01-10T01:32:11.830Z,7.00
2023-01-10T01:34:41.067Z,7.00
2023-01-10T01:37:09.447Z,7.00
2023-01-10T01:39:37.106Z,6.90
2023-01-10T01:42:05.374Z,6.90
2023-01-10T01:44:34.054Z,6.80
2023-01-10T01:47:03.036Z,6.80
2023-01-10T01:49:31.823Z,6.70
2023-01-10T01:52:03.302Z,6.60
2023-01-10T01:54:31.741Z,6.70
2023-01-10T01:57:01.882Z,6.60
2023-01-10T01:59:31.229Z,6.60
2023-01-10T02:02:02.685Z,6.60
2023-01-10T02:04:32.848Z,6.40
2023-01-10T02:07:01.844Z,6.50
2023-01-10T02:09:33.315Z,6.60
2023-01-10T02:12:02.222Z,6.40
2023-01-10T02:14:31.989Z,6.40
2023-01-10T02:16:59.630Z,6.40
2023-01-10T02:19:30.553Z,6.50
2023-01-10T02:22:13.101Z,6.50
2023-01-10T02:24:53.180Z,6.40
2023-01-10T02:27:23.600Z,6.30
2023-01-10T02:30:09.939Z,6.40
2023-01-10T02:32:50.582Z,6.50
2023-01-10T02:35:28.746Z,6.60
2023-01-10T02:38:01.108Z,6.70
2023-01-10T02:40:31.477Z,6.60
2023-01-10T02:43:02.040Z,6.70
2023-01-10T02:45:31.650Z,6.80
2023-01-10T02:48:00.654Z,6.80
2023-01-10T02:50:37.266Z,6.80
2023-01-10T02:53:06.534Z,6.50
2023-01-10T02:55:42.212Z,6.50
2023-01-10T02:58:14.917Z,6.60
2023-01-10T03:00:46.886Z,6.60
2023-01-10T03:03:22.142Z,6.60
2023-01-10T03:05:54.131Z,6.60
2023-01-10T03:08:27.365Z,6.70
2023-01-10T03:10:57.619Z,6.80
2023-01-10T03:13:27.247Z,6.70
2023-01-10T03:15:55.570Z,6.70
2023-01-10T03:18:26.178Z,6.40
2023-01-10T03:20:54.082Z,6.30
2023-01-10T03:23:23.267Z,6.20
2023-01-10T03:25:51.909Z,6.30
2023-01-10T03:28:21.583Z,6.00
2023-01-10T03:30:51.106Z,5.50
2023-01-10T03:33:19.938Z,5.30
2023-01-10T03:35:53.770Z,5.20
2023-01-10T03:38:25.593Z,5.40
2023-01-10T03:40:56.177Z,5.20
2023-01-10T03:43:44.639Z,5.10
2023-01-10T03:46:14.645Z,5.10
2023-01-10T03:48:43.071Z,4.90
2023-01-10T03:51:12.710Z,4.90
2023-01-10T03:53:40.855Z,4.90
2023-01-10T03:56:08.750Z,4.90
2023-01-10T03:58:36.395Z,5.00
2023-01-10T04:01:04.180Z,5.20
2023-01-10T04:03:31.862Z,5.50
2023-01-10T04:05:59.555Z,5.70
2023-01-10T04:08:28.551Z,5.70
2023-01-10T04:10:56.211Z,5.80
2023-01-10T04:13:23.849Z,5.80
2023-01-10T04:15:51.560Z,5.90
2023-01-10T04:18:19.228Z,6.10
2023-01-10T04:20:46.879Z,6.20
2023-01-10T04:23:14.651Z,6.20
2023-01-10T04:25:47.281Z,6.40
2023-01-10T04:28:15.134Z,6.40
2023-01-10T04:30:42.800Z,6.50
2023-01-10T04:33:11.682Z,6.50
2023-01-10T04:35:39.609Z,6.50
2023-01-10T04:38:07.235Z,6.60
2023-01-10T04:40:34.915Z,6.40
2023-01-10T04:43:03.969Z,6.30
2023-01-10T04:45:31.638Z,5.90
2023-01-10T04:48:00.137Z,5.80
2023-01-10T04:50:28.812Z,5.80
2023-01-10T04:52:56.493Z,5.70
2023-01-10T04:55:24.117Z,5.60
2023-01-10T04:57:51.828Z,5.50
2023-01-10T05:00:21.082Z,5.40
2023-01-10T05:02:48.811Z,5.50
2023-01-10T05:05:16.911Z,5.70
2023-01-10T05:07:46.470Z,5.80
2023-01-10T05:10:14.451Z,6.00
2023-01-10T05:12:42.139Z,6.00
2023-01-10T05:15:10.117Z,6.10
2023-01-10T05:17:39.382Z,6.40
2023-01-10T05:20:07.601Z,6.50
2023-01-10T05:22:35.341Z,6.60
2023-01-10T05:25:02.981Z,6.60
2023-01-10T05:27:30.662Z,6.80
2023-01-10T05:29:58.309Z,6.70
2023-01-10T05:32:29.372Z,6.50
2023-01-10T05:34:58.383Z,6.50
2023-01-10T05:37:26.016Z,6.40
2023-01-10T05:39:53.672Z,6.30
2023-01-10T05:42:21.512Z,6.30
2023-01-10T05:44:49.130Z,6.40
2023-01-10T05:47:16.806Z,6.50
2023-01-10T05:49:44.446Z,6.70
2023-01-10T05:52:13.461Z,6.90
2023-01-10T05:54:41.250Z,6.90
2023-01-10T05:57:09.083Z,7.00
2023-01-10T05:59:36.732Z,7.10
2023-01-10T06:02:04.425Z,7.20
2023-01-10T06:04:32.167Z,7.10
2023-01-10T06:06:59.791Z,7.00
2023-01-10T06:09:28.834Z,7.00
2023-01-10T06:11:56.689Z,7.00
2023-01-10T06:14:24.387Z,6.80
2023-01-10T06:16:52.046Z,6.80
2023-01-10T06:19:19.715Z,6.90
2023-01-10T06:21:47.373Z,7.00
2023-01-10T06:24:15.020Z,7.10
2023-01-10T06:26:44.014Z,7.20
2023-01-10T06:29:11.715Z,7.20
2023-01-10T06:31:39.474Z,7.20
2023-01-10T06:34:07.151Z,7.30
2023-01-10T06:36:34.800Z,7.30
2023-01-10T06:39:02.808Z,7.40
2023-01-10T06:41:30.505Z,7.30
2023-01-10T06:43:59.599Z,7.20
2023-01-10T06:46:27.260Z,7.10
2023-01-10T06:48:54.968Z,7.00
2023-01-10T06:51:22.616Z,6.90
2023-01-10T06:53:50.276Z,6.90
2023-01-10T06:56:17.925Z,6.90
2023-01-10T06:58:45.632Z,6.90
2023-01-10T07:01:15.916Z,7.00
2023-01-10T07:03:43.691Z,6.90
2023-01-10T07:06:11.448Z,6.90
2023-01-10T07:08:39.721Z,6.80
2023-01-10T07:11:07.517Z,6.80
2023-01-10T07:13:35.183Z,6.60
2023-01-10T07:16:03.528Z,6.20
2023-01-10T07:18:32.924Z,6.00
2023-01-10T07:21:00.575Z,5.70
2023-01-10T07:23:28.258Z,5.60
2023-01-10T07:25:55.929Z,5.40
2023-01-10T07:28:23.557Z,5.20
2023-01-10T07:30:51.208Z,5.10
2023-01-10T07:33:18.890Z,4.80
2023-01-10T07:35:47.994Z,4.80
2023-01-10T07:38:15.620Z,4.70
2023-01-10T07:40:45.445Z,4.50
2023-01-10T07:43:13.128Z,4.40
2023-01-10T07:45:40.984Z,4.30
2023-01-10T07:48:08.673Z,4.20
2023-01-10T07:50:36.598Z,4.20
2023-01-10T07:53:06.274Z,4.10
2023-01-10T07:55:36.341Z,4.10
2023-01-10T07:58:03.991Z,4.20
2023-01-10T08:00:31.631Z,4.20
2023-01-10T08:03:06.899Z,4.20
2023-01-10T08:05:34.740Z,4.30
2023-01-10T08:08:06.412Z,4.40
2023-01-10T08:10:34.394Z,4.50
2023-01-10T08:13:17.025Z,4.50
2023-01-10T08:15:47.274Z,4.60
2023-01-10T08:18:15.138Z,4.60
2023-01-10T08:20:42.980Z,4.60
2023-01-10T08:23:12.012Z,4.60
2023-01-10T08:25:39.749Z,4.60
2023-01-10T08:28:07.491Z,4.70
2023-01-10T08:30:35.167Z,4.80
2023-01-10T08:33:03.311Z,4.90
2023-01-10T08:35:31.025Z,5.00
2023-01-10T08:37:59.789Z,4.90
2023-01-10T08:40:28.816Z,5.00
2023-01-10T08:42:59.851Z,5.10
2023-01-10T08:45:27.554Z,5.20
2023-01-10T08:47:55.560Z,5.30
2023-01-10T08:50:23.564Z,5.50
2023-01-10T08:52:52.011Z,5.70
2023-01-10T08:55:20.004Z,5.90
2023-01-10T08:57:49.271Z,6.10
2023-01-10T09:00:17.259Z,6.20
2023-01-10T09:02:45.083Z,6.50
2023-01-10T09:05:26.295Z,6.40
2023-01-10T09:07:58.457Z,6.20
2023-01-10T09:10:26.487Z,6.10
2023-01-10T09:12:59.667Z,6.00
2023-01-10T09:15:28.343Z,6.00
2023-01-10T09:17:56.322Z,5.90
2023-01-10T09:20:24.897Z,6.00
2023-01-10T09:22:52.966Z,6.00
2023-01-10T09:25:20.753Z,6.20
2023-01-10T09:27:48.427Z,6.30
2023-01-10T09:30:17.997Z,6.40
2023-01-10T09:32:45.639Z,6.40
2023-01-10T09:35:13.305Z,6.40
2023-01-10T09:37:40.961Z,6.40
2023-01-10T09:40:10.616Z,6.40
2023-01-10T09:42:45.081Z,6.40
2023-01-10T09:45:15.986Z,6.30
2023-01-10T09:47:48.101Z,6.40
2023-01-10T09:50:20.044Z,6.40
2023-01-10T09:52:49.408Z,6.40
2023-01-10T09:55:19.267Z,6.50
2023-01-10T09:57:47.095Z,6.60
2023-01-10T10:00:18.339Z,6.70
2023-01-10T10:02:49.304Z,7.10
2023-01-10T10:05:19.401Z,7.50
2023-01-10T10:07:51.618Z,7.80
2023-01-10T10:10:22.738Z,8.00
2023-01-10T10:12:55.235Z,8.20
2023-01-10T10:15:25.235Z,8.40
2023-01-10T10:18:01.365Z,8.70
2023-01-10T10:20:33.558Z,9.10
2023-01-10T10:23:06.841Z,9.60
2023-01-10T10:25:42.503Z,8.90
2023-01-10T10:28:22.294Z,8.40
2023-01-10T10:30:57.250Z,7.90
2023-01-10T10:33:38.844Z,7.70
2023-01-10T10:36:11.480Z,7.60
2023-01-10T10:38:40.582Z,7.50
2023-01-10T10:41:15.967Z,7.30
2023-01-10T10:43:46.326Z,7.30
2023-01-10T10:46:14.908Z,7.20
2023-01-10T10:48:50.587Z,7.20
2023-01-10T10:51:20.551Z,7.10
2023-01-10T10:53:48.451Z,7.10
2023-01-10T10:56:19.014Z,7.10
2023-01-10T10:58:49.259Z,7.10
2023-01-10T11:01:17.709Z,7.00
2023-01-10T11:03:48.327Z,7.00
2023-01-10T11:06:16.852Z,7.10
2023-01-10T11:08:46.237Z,7.00
2023-01-10T11:11:17.622Z,7.10
2023-01-10T11:13:47.797Z,7.10
2023-01-10T11:16:26.318Z,7.10
2023-01-10T11:19:17.644Z,7.10
2023-01-10T11:21:48.686Z,7.10
2023-01-10T11:24:21.862Z,7.10
2023-01-10T11:26:49.944Z,7.10
2023-01-10T11:29:18.822Z,7.10
2023-01-10T11:31:46.971Z,7.10
2023-01-10T11:34:23.624Z,7.10
2023-01-10T11:36:55.252Z,7.10
2023-01-10T11:39:22.962Z,7.10
2023-01-10T11:41:53.168Z,7.20
2023-01-10T11:44:25.143Z,7.20
2023-01-10T11:46:55.190Z,7.10
2023-01-10T11:49:27.935Z,7.10
2023-01-10T11:51:58.667Z,7.20
2023-01-10T11:54:27.224Z,7.20
2023-01-10T11:56:56.165Z,7.10
2023-01-10T11:59:24.139Z,7.20
2023-01-10T12:01:56.137Z,7.30
2023-01-10T12:04:24.333Z,7.30
2023-01-10T12:06:55.618Z,7.40
2023-01-10T12:09:33.785Z,7.40
2023-01-10T12:12:04.288Z,7.50
2023-01-10T12:14:32.109Z,7.80
2023-01-10T12:17:00.828Z,8.10
2023-01-10T12:19:29.067Z,8.30
2023-01-10T12:21:58.956Z,8.30
2023-01-10T12:24:29.103Z,8.10
2023-01-10T12:26:57.971Z,8.00
2023-01-10T12:29:27.524Z,7.90
2023-01-10T12:31:55.997Z,7.80
2023-01-10T12:34:25.208Z,7.80
2023-01-10T12:36:57.234Z,7.70
2023-01-10T12:39:30.283Z,7.50
2023-01-10T12:42:20.928Z,7.50
2023-01-10T12:44:50.758Z,7.40
2023-01-10T12:47:21.949Z,7.40
2023-01-10T12:49:52.050Z,7.40
2023-01-10T12:52:23.478Z,7.30
2023-01-10T12:54:52.507Z,7.30
2023-01-10T12:57:24.698Z,7.30
2023-01-10T12:59:53.568Z,7.30
2023-01-10T13:02:23.217Z,7.30
2023-01-10T13:04:53.042Z,7.30
2023-01-10T13:07:21.303Z,7.40
2023-01-10T13:09:49.611Z,7.30
2023-01-10T13:12:22.856Z,7.30
2023-01-10T13:14:52.246Z,7.20
2023-01-10T13:17:26.810Z,7.20
2023-01-10T13:20:12.440Z,7.30
2023-01-10T13:22:40.098Z,7.30
2023-01-10T13:25:19.666Z,7.20
2023-01-10T13:27:53.232Z,7.20
2023-01-10T13:30:26.326Z,7.20
2023-01-10T13:33:00.060Z,7.20
2023-01-10T13:35:29.370Z,7.20
2023-01-10T13:37:57.693Z,7.20
2023-01-10T13:40:28.114Z,7.10
2023-01-10T13:43:21.651Z,7.10
2023-01-10T13:46:10.645Z,7.00
2023-01-10T13:48:39.753Z,7.00
2023-01-10T13:51:14.196Z,7.00
2023-01-10T13:53:44.601Z,7.00
2023-01-10T13:56:29.940Z,7.00
2023-01-10T13:59:15.342Z,7.00
2023-01-10T14:02:00.963Z,6.90
2023-01-10T14:04:31.107Z,6.90
2023-01-10T14:07:00.202Z,7.00
2023-01-10T14:09:39.653Z,6.90
2023-01-10T14:12:09.802Z,6.90
2023-01-10T14:14:39.392Z,6.90
2023-01-10T14:17:13.138Z,6.90
2023-01-10T14:19:43.477Z,6.90
2023-01-10T14:22:24.720Z,6.90
2023-01-10T14:24:53.699Z,6.80
2023-01-10T14:27:22.209Z,6.80
2023-01-10T14:29:51.045Z,6.80
2023-01-10T14:32:24.640Z,6.80
2023-01-10T14:34:53.887Z,6.80
2023-01-10T14:37:26.031Z,6.80
2023-01-10T14:39:55.952Z,6.80
2023-01-10T14:42:23.918Z,6.80
2023-01-10T14:44:54.880Z,6.80
2023-01-10T14:47:27.875Z,6.70
2023-01-10T14:49:58.151Z,6.80
2023-01-10T14:52:26.627Z,6.80
2023-01-10T14:55:03.683Z,6.70
2023-01-10T14:57:31.426Z,6.80
2023-01-10T15:00:04.809Z,6.70
2023-01-10T15:02:32.908Z,6.70
2023-01-10T15:05:07.620Z,6.70
2023-01-10T15:07:35.253Z,6.70
2023-01-10T15:10:05.977Z,6.70
2023-01-10T15:12:35.679Z,6.70
2023-01-10T15:15:04.191Z,6.70
2023-01-10T15:17:32.311Z,6.70
2023-01-10T15:20:00.074Z,6.70
2023-01-10T15:22:30.825Z,6.60
2023-01-10T15:24:59.516Z,6.60
2023-01-10T15:27:27.215Z,6.60
2023-01-10T15:29:54.893Z,6.60
2023-01-10T15:32:25.012Z,6.60
2023-01-10T15:34:53.522Z,6.60
2023-01-10T15:37:22.571Z,6.60
2023-01-10T15:39:51.869Z,6.60
2023-01-10T15:42:20.957Z,6.50
2023-01-10T15:44:52.533Z,6.50
2023-01-10T15:47:33.169Z,6.50
2023-01-10T15:50:00.989Z,6.50
2023-01-10T15:52:28.679Z,6.50
2023-01-10T15:54:57.802Z,6.50
2023-01-10T15:57:27.151Z,6.40
2023-01-10T15:59:54.857Z,6.40
2023-01-10T16:02:24.557Z,6.40
2023-01-10T16:04:55.587Z,6.40
2023-01-10T16:07:27.591Z,6.40
2023-01-10T16:09:57.448Z,6.40
2023-01-10T16:12:44.150Z,6.40
2023-01-10T16:15:17.079Z,6.30
2023-01-10T16:17:44.737Z,6.30
2023-01-10T16:20:13.603Z,6.30
2023-01-10T16:22:42.078Z,6.30
2023-01-10T16:25:13.965Z,6.30
2023-01-10T16:27:43.022Z,6.20
2023-01-10T16:30:24.206Z,6.20
2023-01-10T16:32:52.373Z,6.20
2023-01-10T16:35:20.537Z,6.20
2023-01-10T16:37:48.675Z,6.20
2023-01-10T16:40:23.144Z,6.20
2023-01-10T16:43:09.719Z,6.20
2023-01-10T16:45:37.498Z,6.10
2023-01-10T16:48:05.323Z,6.10
2023-01-10T16:50:33.175Z,6.10
2023-01-10T16:53:00.844Z,6.10
2023-01-10T16:55:33.975Z,6.10
2023-01-10T16:58:02.937Z,6.10
2023-01-10T17:00:30.583Z,6.10
2023-01-10T17:02:58.652Z,6.10
2023-01-10T17:05:26.397Z,6.00
2023-01-10T17:07:54.247Z,6.10
2023-01-10T17:10:21.902Z,6.10
2023-01-10T17:12:49.685Z,6.10
2023-01-10T17:15:18.769Z,6.10
2023-01-10T17:17:46.663Z,6.10
2023-01-10T17:20:16.115Z,6.10
2023-01-10T17:22:44.019Z,6.10
2023-01-10T17:25:14.497Z,6.10
2023-01-10T17:27:42.207Z,6.10
2023-01-10T17:30:10.755Z,6.10
2023-01-10T17:32:39.763Z,6.00
2023-01-10T17:35:08.041Z,6.00
2023-01-10T17:37:36.159Z,6.00
2023-01-10T17:40:04.105Z,6.00
2023-01-10T17:42:31.750Z,6.00
2023-01-10T17:44:59.410Z,6.00
2023-01-10T17:47:27.094Z,6.00
2023-01-10T17:49:56.067Z,6.00
2023-01-10T17:52:23.898Z,6.00
2023-01-10T17:54:51.555Z,6.00
2023-01-10T17:57:19.351Z,6.00
2023-01-10T17:59:47.009Z,6.00
2023-01-10T18:02:16.887Z,6.10
2023-01-10T18:04:44.851Z,6.00
2023-01-10T18:07:13.876Z,6.10
2023-01-10T18:09:41.539Z,6.10
2023-01-10T18:12:09.329Z,6.10
2023-01-10T18:15:00.797Z,6.10
2023-01-10T18:17:28.569Z,6.10
2023-01-10T18:19:56.202Z,6.10
2023-01-10T18:22:39.181Z,6.10
2023-01-10T18:25:07.433Z,6.10
2023-01-10T18:27:36.108Z,6.10
2023-01-10T18:30:03.923Z,6.10
2023-01-10T18:32:32.353Z,6.10
2023-01-10T18:35:00.379Z,6.10
2023-01-10T18:37:29.467Z,6.10
2023-01-10T18:39:57.138Z,6.10
2023-01-10T18:42:24.775Z,6.00
2023-01-10T18:44:52.438Z,5.90
2023-01-10T18:47:20.093Z,5.90
2023-01-10T18:49:48.209Z,5.90
2023-01-10T18:52:16.766Z,5.90
2023-01-10T18:54:47.425Z,5.80
2023-01-10T18:57:15.196Z,5.80
2023-01-10T18:59:42.951Z,5.70
2023-01-10T19:02:11.490Z,5.70
2023-01-10T19:04:39.190Z,5.60
2023-01-10T19:07:07.197Z,5.70
2023-01-10T19:09:34.951Z,5.70
2023-01-10T19:12:03.994Z,5.70
2023-01-10T19:14:31.719Z,5.70
2023-01-10T19:16:59.366Z,5.60
2023-01-10T19:19:27.036Z,5.60
2023-01-10T19:21:54.725Z,5.60
2023-01-10T19:24:24.054Z,5.50
2023-01-10T19:26:51.951Z,5.60
2023-01-10T19:29:21.177Z,5.60
2023-01-10T19:31:49.933Z,5.50
2023-01-10T19:34:17.778Z,5.50
2023-01-10T19:36:45.765Z,5.50
2023-01-10T19:39:14.127Z,5.40
2023-01-10T19:41:42.639Z,5.40
2023-01-10T19:44:13.070Z,5.40
2023-01-10T19:46:44.035Z,5.40
2023-01-10T19:49:17.083Z,5.40
2023-01-10T19:51:47.469Z,5.40
2023-01-10T19:54:15.175Z,5.40
2023-01-10T19:56:42.866Z,5.40
2023-01-10T19:59:13.610Z,5.40
2023-01-10T20:01:43.216Z,5.40
2023-01-10T20:04:11.070Z,5.30
2023-01-10T20:06:39.787Z,5.40
2023-01-10T20:09:08.111Z,5.40
2023-01-10T20:11:38.113Z,5.40
2023-01-10T20:14:05.986Z,5.40
2023-01-10T20:16:33.711Z,5.40
2023-01-10T20:19:02.814Z,5.40
2023-01-10T20:21:30.480Z,5.40
2023-01-10T20:23:58.344Z,5.40
2023-01-10T20:26:26.879Z,5.40
2023-01-10T20:28:56.349Z,5.40
2023-01-10T20:31:25.106Z,5.40
2023-01-10T20:33:52.990Z,5.40
2023-01-10T20:36:23.370Z,5.40
2023-01-10T20:38:51.369Z,5.40
2023-01-10T20:41:21.098Z,5.40
2023-01-10T20:43:48.918Z,5.40
2023-01-10T20:46:17.640Z,5.40
2023-01-10T20:48:46.119Z,5.40
2023-01-10T20:51:15.912Z,5.40
2023-01-10T20:53:45.178Z,5.40
2023-01-10T20:56:13.627Z,5.40
2023-01-10T20:58:41.399Z,5.40
2023-01-10T21:01:09.797Z,5.40
2023-01-10T21:03:37.755Z,5.40
2023-01-10T21:06:05.499Z,5.40
2023-01-10T21:08:33.167Z,5.40
2023-01-10T21:11:02.205Z,5.40
2023-01-10T21:13:29.850Z,5.40
2023-01-10T21:15:57.976Z,5.30
2023-01-10T21:18:26.770Z,5.30
2023-01-10T21:20:55.266Z,5.30
2023-01-10T21:23:24.220Z,5.30
2023-01-10T21:25:52.323Z,5.20
2023-01-10T21:28:21.931Z,5.20
2023-01-10T21:30:49.705Z,5.30
2023-01-10T21:33:17.342Z,5.20
2023-01-10T21:35:51.668Z,5.20
2023-01-10T21:38:19.348Z,5.20
2023-01-10T21:40:47.008Z,5.20
2023-01-10T21:43:14.673Z,5.20
2023-01-10T21:45:43.695Z,5.20
2023-01-10T21:48:11.393Z,5.20
2023-01-10T21:50:39.281Z,5.20
2023-01-10T21:53:06.928Z,5.20
2023-01-10T21:55:35.324Z,5.20
2023-01-10T21:58:03.042Z,5.30
2023-01-10T22:00:30.746Z,5.20
2023-01-10T22:02:59.779Z,5.30
2023-01-10T22:05:27.633Z,5.30
2023-01-10T22:07:55.972Z,5.40
2023-01-10T22:10:24.005Z,5.40
2023-01-10T22:12:51.698Z,5.40
2023-01-10T22:15:19.645Z,5.40
2023-01-10T22:17:48.143Z,5.40
2023-01-10T22:20:17.513Z,5.50
2023-01-10T22:22:45.157Z,5.50
2023-01-10T22:25:12.835Z,5.50
2023-01-10T22:27:41.223Z,5.50
2023-01-10T22:30:10.780Z,5.50
2023-01-10T22:32:38.446Z,5.50
2023-01-10T22:35:06.454Z,5.50
2023-01-10T22:37:35.455Z,5.50
2023-01-10T22:40:03.879Z,5.50
2023-01-10T22:42:31.802Z,5.50
2023-01-10T22:44:59.500Z,5.50
2023-01-10T22:47:27.164Z,5.50
2023-01-10T22:49:54.819Z,5.50
2023-01-10T22:52:22.476Z,5.50
2023-01-10T22:54:51.460Z,5.50
2023-01-10T22:57:19.156Z,5.50
2023-01-10T22:59:46.846Z,5.50
2023-01-10T23:02:14.806Z,5.60
2023-01-10T23:04:42.497Z,5.60
2023-01-10T23:07:10.797Z,5.60
2023-01-10T23:09:38.549Z,5.70
2023-01-10T23:12:08.294Z,5.70
2023-01-10T23:14:36.620Z,5.70
2023-01-10T23:17:04.288Z,5.60
2023-01-10T23:19:32.002Z,5.60
2023-01-10T23:21:59.646Z,5.60
2023-01-10T23:24:27.389Z,5.70
2023-01-10T23:26:55.049Z,5.70
2023-01-10T23:29:24.096Z,5.70
2023-01-10T23:31:51.775Z,5.70
2023-01-10T23:34:19.616Z,5.70
2023-01-10T23:36:47.299Z,5.60
2023-01-10T23:39:18.769Z,5.60
2023-01-10T23:41:47.141Z,5.60
2023-01-10T23:44:14.959Z,5.60
2023-01-10T23:46:43.945Z,5.60
2023-01-10T23:49:11.995Z,5.50
2023-01-10T23:51:39.907Z,5.60
2023-01-10T23:54:07.569Z,5.50
2023-01-10T23:56:35.355Z,5.50
2023-01-10T23:59:03.008Z,5.60
